Time;durP1;ratioP1;P1;durP2;ratioP2;P2;SDS_P1;SDS_P2;PMS_P1;PMS_P2;Temp;Humidity;BMP_temperature;BMP_pressure;BME280_temperature;BME280_humidity;BME280_pressure;Samples;Min_cycle;Max_cycle;Signal;HPM_P1;HPM_P2
2020/12/28 00:02:05;;;;;;;6.93;5.00;;;;;;;2.16;52.86;94873.00;8288501;28;20198;-80
2020/12/28 00:06:06;;;;;;;5.00;4.50;;;;;;;2.46;52.67;94935.94;8294659;28;20229;-80
2020/12/28 00:10:10;;;;;;;6.07;4.70;;;;;;;2.56;51.92;94942.09;8294844;28;20209;-80
2020/12/28 00:14:12;;;;;;;6.43;5.00;;;;;;;2.63;52.03;94929.78;8293539;28;20248;-79
2020/12/28 00:18:15;;;;;;;4.70;4.30;;;;;;;2.44;52.23;94920.69;8292077;28;20213;-79
2020/12/28 00:22:17;;;;;;;6.87;4.70;;;;;;;2.14;52.71;94913.13;8287432;28;20202;-79
2020/12/28 00:26:19;;;;;;;6.27;5.10;;;;;;;2.28;52.56;94918.22;8282606;28;20228;-79
2020/12/28 00:30:20;;;;;;;6.93;5.27;;;;;;;2.47;52.11;94930.69;8286548;28;20209;-80
2020/12/28 00:34:23;;;;;;;6.27;4.80;;;;;;;2.42;52.04;94911.47;8289556;28;20225;-80
2020/12/28 00:38:25;;;;;;;6.27;5.10;;;;;;;2.11;53.62;94890.34;8285507;28;20205;-80
2020/12/28 00:42:29;;;;;;;5.53;4.87;;;;;;;1.83;55.14;94886.03;8292092;28;20206;-80
2020/12/28 00:46:31;;;;;;;5.30;4.80;;;;;;;1.41;57.30;94849.38;8290480;28;20233;-80
2020/12/28 00:50:34;;;;;;;5.53;4.47;;;;;;;1.48;57.84;94848.94;8293130;28;20221;-80
2020/12/28 00:54:35;;;;;;;5.40;4.80;;;;;;;1.69;58.01;94839.19;8295204;28;20210;-80
2020/12/28 00:58:38;;;;;;;5.93;5.30;;;;;;;1.76;57.31;94839.66;8295057;28;20213;-80
2020/12/28 01:02:39;;;;;;;6.28;5.45;;;;;;;1.88;57.30;94820.25;8280063;28;20424;-80
2020/12/28 01:06:42;;;;;;;5.20;4.70;;;;;;;1.53;59.14;94793.38;8272197;28;20264;-80
2020/12/28 01:10:44;;;;;;;6.07;5.27;;;;;;;1.42;59.97;94797.47;8294377;28;20197;-80
2020/12/28 01:14:46;;;;;;;6.53;5.53;;;;;;;1.33;60.13;94794.56;8286741;28;20243;-80
2020/12/28 01:18:48;;;;;;;7.87;5.40;;;;;;;1.32;60.39;94772.53;8260448;28;20206;-79
2020/12/28 01:22:51;;;;;;;5.20;4.70;;;;;;;1.65;59.48;94776.53;8255644;28;20213;-79
2020/12/28 01:26:53;;;;;;;5.83;5.00;;;;;;;1.52;59.75;94773.06;8252559;28;20233;-79
2020/12/28 01:30:55;;;;;;;6.63;5.13;;;;;;;1.56;60.23;94774.50;8250575;28;20206;-79
2020/12/28 01:34:57;;;;;;;7.93;4.93;;;;;;;1.58;60.08;94770.16;8279655;28;20217;-79
2020/12/28 01:38:59;;;;;;;6.70;5.03;;;;;;;1.88;59.59;94784.53;8286059;28;20205;-79
2020/12/28 01:43:01;;;;;;;6.63;4.83;;;;;;;1.88;59.79;94771.75;8286868;28;20220;-80
2020/12/28 01:47:03;;;;;;;8.00;4.90;;;;;;;1.92;59.47;94791.91;8289876;28;20233;-80
2020/12/28 01:51:05;;;;;;;5.60;5.00;;;;;;;1.56;60.86;94759.22;8285890;28;20210;-81
2020/12/28 01:55:07;;;;;;;6.47;4.73;;;;;;;1.90;59.62;94768.19;8277090;28;20674;-80
2020/12/28 01:59:09;;;;;;;6.07;4.63;;;;;;;2.05;59.47;94763.06;8256359;28;20206;-81
2020/12/28 02:03:11;;;;;;;5.40;4.73;;;;;;;1.86;60.26;94751.44;8256939;28;20206;-81
2020/12/28 02:07:13;;;;;;;6.63;5.40;;;;;;;1.97;60.12;94734.66;8254545;28;20253;-80
2020/12/28 02:11:16;;;;;;;7.27;5.57;;;;;;;2.09;59.83;94747.47;8254540;28;20223;-81
2020/12/28 02:15:18;;;;;;;6.80;6.07;;;;;;;1.77;61.01;94723.94;8258709;28;20242;-81
2020/12/28 02:19:20;;;;;;;5.90;5.30;;;;;;;2.02;60.15;94730.06;8256195;28;20199;-80
2020/12/28 02:23:23;;;;;;;5.77;5.03;;;;;;;2.30;59.63;94722.34;8254984;28;20547;-80
2020/12/28 02:27:25;;;;;;;5.90;4.80;;;;;;;2.01;60.69;94697.81;8252526;28;20237;-80
2020/12/28 02:31:27;;;;;;;7.00;5.30;;;;;;;2.08;60.21;94694.78;8255773;28;20241;-80
2020/12/28 02:35:29;;;;;;;5.77;5.17;;;;;;;2.44;59.68;94684.91;8262506;28;20199;-80
2020/12/28 02:39:32;;;;;;;6.23;4.70;;;;;;;2.54;58.94;94668.84;8251396;28;20210;-80
2020/12/28 02:43:34;;;;;;;5.67;5.10;;;;;;;2.57;59.08;94679.78;8250100;28;20213;-80
2020/12/28 02:47:36;;;;;;;6.77;5.60;;;;;;;2.33;60.26;94688.94;8269649;28;20233;-80
2020/12/28 02:51:37;;;;;;;7.63;5.03;;;;;;;2.30;60.76;94712.13;8285566;28;20202;-80
2020/12/28 02:55:40;;;;;;;6.60;5.07;;;;;;;2.52;59.85;94700.53;8284679;28;20661;-79
2020/12/28 02:59:42;;;;;;;7.57;5.80;;;;;;;2.47;60.31;94713.59;8283604;28;20206;-80
2020/12/28 03:03:43;;;;;;;6.43;5.33;;;;;;;2.53;60.03;94712.38;8284080;28;20220;-80
2020/12/28 03:07:45;;;;;;;6.37;4.90;;;;;;;2.25;61.02;94700.56;8284911;28;20283;-79
2020/12/28 03:11:48;;;;;;;5.17;4.67;;;;;;;2.36;60.57;94708.34;8283890;28;20225;-79
2020/12/28 03:15:50;;;;;;;5.70;4.67;;;;;;;2.51;60.08;94697.16;8279211;28;20705;-80
2020/12/28 03:19:52;;;;;;;5.23;4.37;;;;;;;2.39;60.90;94699.69;8278299;28;20228;-80
2020/12/28 03:23:54;;;;;;;5.40;4.83;;;;;;;2.16;62.02;94696.84;8279714;28;20198;-80
2020/12/28 03:27:56;;;;;;;5.80;5.20;;;;;;;2.35;61.09;94699.06;8279080;28;20230;-80
2020/12/28 03:31:58;;;;;;;6.97;4.90;;;;;;;2.46;61.10;94681.31;8277326;28;20206;-81
2020/12/28 03:36:00;;;;;;;5.90;5.30;;;;;;;2.40;60.75;94680.88;8278701;28;20197;-81
2020/12/28 03:40:02;;;;;;;4.90;4.40;;;;;;;2.31;61.43;94685.66;8277558;28;20559;-80
2020/12/28 03:44:05;;;;;;;6.13;5.37;;;;;;;2.25;61.81;94680.16;8277979;28;20631;-80
2020/12/28 03:48:07;;;;;;;6.27;4.73;;;;;;;2.68;60.59;94673.06;8277991;28;20221;-80
2020/12/28 03:52:08;;;;;;;5.30;4.70;;;;;;;2.69;60.75;94673.88;8279020;28;20202;-80
2020/12/28 03:56:10;;;;;;;6.53;5.13;;;;;;;2.68;60.54;94651.81;8279421;28;20221;-81
2020/12/28 04:00:13;;;;;;;4.90;4.40;;;;;;;2.98;59.62;94640.47;8279961;28;20201;-80
2020/12/28 04:04:15;;;;;;;6.63;4.57;;;;;;;2.68;60.50;94634.72;8279550;28;20206;-81
2020/12/28 04:08:17;;;;;;;5.30;4.63;;;;;;;2.90;60.23;94623.91;8281107;28;20708;-81
2020/12/28 04:12:19;;;;;;;6.20;5.10;;;;;;;2.87;60.31;94639.44;8280179;28;20765;-81
2020/12/28 04:16:22;;;;;;;5.17;4.67;;;;;;;2.96;59.98;94653.34;8281427;28;20669;-81
2020/12/28 04:20:23;;;;;;;6.27;5.00;;;;;;;2.63;60.85;94657.22;8280252;28;20202;-81
2020/12/28 04:24:25;;;;;;;6.63;4.97;;;;;;;2.67;60.71;94661.22;8281207;28;20205;-81
2020/12/28 04:28:28;;;;;;;5.90;4.70;;;;;;;2.66;60.54;94651.91;8279580;28;20272;-82
2020/12/28 04:32:30;;;;;;;6.90;4.70;;;;;;;2.66;60.47;94648.53;8280189;28;20202;-81
2020/12/28 04:36:33;;;;;;;5.67;5.10;;;;;;;2.24;61.14;94646.13;8280435;28;20208;-81
2020/12/28 04:40:35;;;;;;;7.10;5.10;;;;;;;2.50;60.25;94657.19;8282221;28;20198;-81
2020/12/28 04:44:36;;;;;;;6.97;5.20;;;;;;;2.49;60.37;94647.88;8282054;28;20202;-80
2020/12/28 04:48:39;;;;;;;7.87;5.40;;;;;;;2.41;59.85;94639.91;8283838;28;20230;-80
2020/12/28 04:52:41;;;;;;;6.37;5.07;;;;;;;2.44;59.62;94633.81;8291135;28;20214;-80
2020/12/28 04:56:44;;;;;;;6.17;5.57;;;;;;;2.15;60.66;94639.03;8286023;28;20216;-81
2020/12/28 05:00:46;;;;;;;6.93;5.57;;;;;;;2.43;59.87;94643.19;8282293;28;20573;-82
2020/12/28 05:04:50;;;;;;;5.60;5.10;;;;;;;2.42;59.87;94644.13;8284342;28;20230;-81
2020/12/28 05:08:54;;;;;;;6.73;5.37;;;;;;;2.31;59.55;94665.25;8282983;28;20266;-82
2020/12/28 05:13:06;;;;;;;7.10;5.10;;;;;;;2.26;59.87;94651.94;8282995;28;20244;-80
2020/12/28 05:17:08;;;;;;;8.03;5.93;;;;;;;2.40;60.42;94642.56;8282586;28;20194;-81
2020/12/28 05:21:11;;;;;;;6.37;5.60;;;;;;;2.30;60.76;94653.41;8283293;28;20210;-81
2020/12/28 05:25:13;;;;;;;5.93;5.33;;;;;;;2.48;59.81;94658.22;8284243;28;20288;-80
2020/12/28 05:29:16;;;;;;;6.97;5.67;;;;;;;2.12;60.72;94663.03;8281697;28;20234;-81
2020/12/28 05:33:18;;;;;;;6.20;5.30;;;;;;;2.35;60.26;94653.09;8283963;28;20209;-80
2020/12/28 05:37:21;;;;;;;8.20;5.70;;;;;;;2.29;60.44;94643.28;8282940;28;20209;-81
2020/12/28 05:41:27;;;;;;;5.97;5.37;;;;;;;2.27;60.80;94629.81;8283526;28;20210;-81
2020/12/28 05:45:29;;;;;;;6.63;5.90;;;;;;;2.13;61.76;94612.78;8283706;28;20194;-80
2020/12/28 05:49:36;;;;;;;6.27;5.67;;;;;;;2.00;61.51;94602.56;8284486;28;20274;-81
2020/12/28 05:53:42;;;;;;;8.93;5.67;;;;;;;2.11;61.15;94601.88;8281326;28;20213;-81
2020/12/28 05:57:44;;;;;;;6.50;5.80;;;;;;;2.10;61.86;94587.47;8284188;28;20206;-81
2020/12/28 06:01:48;;;;;;;7.83;5.80;;;;;;;1.92;62.00;94582.66;8282040;28;20204;-81
2020/12/28 06:05:52;;;;;;;6.07;5.43;;;;;;;2.35;61.27;94620.69;8282666;28;20233;-81
2020/12/28 06:09:55;;;;;;;6.70;6.00;;;;;;;2.39;60.51;94608.56;8282641;28;20202;-81
2020/12/28 06:13:57;;;;;;;9.83;7.07;;;;;;;2.35;61.34;94612.22;8282847;28;20241;-81
2020/12/28 06:17:59;;;;;;;6.73;6.07;;;;;;;2.22;61.73;94604.53;8279375;28;20206;-81
2020/12/28 06:22:01;;;;;;;7.57;6.20;;;;;;;2.35;61.50;94607.94;8282194;28;20216;-80
2020/12/28 06:26:03;;;;;;;7.07;6.03;;;;;;;2.02;62.37;94594.78;8268102;28;20237;-80
2020/12/28 06:30:10;;;;;;;6.90;6.20;;;;;;;2.11;61.37;94602.72;8269673;28;20195;-80
2020/12/28 06:34:17;;;;;;;7.10;6.40;;;;;;;2.15;61.81;94619.47;8268479;28;20206;-80
2020/12/28 06:38:24;;;;;;;11.40;6.50;;;;;;;2.12;61.92;94618.84;8267218;28;20205;-80
2020/12/28 06:42:26;;;;;;;6.67;6.00;;;;;;;2.15;60.99;94618.63;8269479;28;20191;-80
2020/12/28 06:46:29;;;;;;;6.17;5.57;;;;;;;2.05;61.69;94617.59;8261749;28;20222;-80
2020/12/28 06:50:31;;;;;;;6.87;6.17;;;;;;;1.86;62.26;94612.84;8269702;28;20224;-80
2020/12/28 06:54:33;;;;;;;8.27;6.10;;;;;;;1.93;62.28;94604.69;8274086;28;20210;-80
2020/12/28 06:58:36;;;;;;;7.03;6.00;;;;;;;1.87;61.93;94610.19;8258230;28;20209;-80
2020/12/28 07:02:38;;;;;;;8.50;6.50;;;;;;;2.10;61.29;94611.28;8255539;28;20210;-80
2020/12/28 07:06:40;;;;;;;8.03;6.37;;;;;;;2.14;61.33;94614.44;8256737;28;20227;-80
2020/12/28 07:10:42;;;;;;;6.97;6.27;;;;;;;2.14;61.24;94620.38;8257386;28;20199;-81
2020/12/28 07:14:45;;;;;;;8.67;7.30;;;;;;;2.25;61.05;94629.91;8257252;28;20249;-80
2020/12/28 07:18:47;;;;;;;7.90;7.10;;;;;;;2.10;61.02;94620.66;8256418;28;20206;-80
2020/12/28 07:22:49;;;;;;;7.23;6.40;;;;;;;2.08;61.33;94622.50;8258231;28;20218;-80
2020/12/28 07:26:51;;;;;;;6.93;6.23;;;;;;;2.17;60.84;94613.41;8258245;28;20234;-80
2020/12/28 07:30:57;;;;;;;7.73;6.40;;;;;;;2.38;60.44;94617.16;8260130;28;20205;-80
2020/12/28 07:34:59;;;;;;;8.00;6.90;;;;;;;2.48;59.98;94620.72;8266320;28;20207;-80
2020/12/28 07:39:01;;;;;;;7.80;6.33;;;;;;;2.28;60.82;94614.34;8259281;28;20214;-80
2020/12/28 07:43:08;;;;;;;8.53;6.80;;;;;;;2.53;60.42;94611.03;8255936;28;20198;-81
2020/12/28 07:47:15;;;;;;;10.53;7.43;;;;;;;2.66;60.03;94605.09;8255072;28;20226;-80
2020/12/28 07:51:19;;;;;;;8.53;7.13;;;;;;;2.54;59.93;94611.84;8255246;28;20202;-80
2020/12/28 07:55:21;;;;;;;7.83;6.57;;;;;;;2.65;60.01;94606.84;8255676;28;20203;-80
2020/12/28 07:59:45;;;;;;;10.03;6.47;;;;;;;2.65;60.10;94606.84;8255448;28;20210;-80
2020/12/28 08:03:50;;;;;;;7.80;6.90;;;;;;;2.68;60.08;94605.81;8254659;28;20607;-80
2020/12/28 08:07:51;;;;;;;7.43;6.53;;;;;;;2.88;59.54;94612.97;8255443;28;20249;-81
2020/12/28 08:12:00;;;;;;;9.40;7.23;;;;;;;2.89;59.63;94619.72;8255763;28;20222;-81
2020/12/28 08:16:09;;;;;;;9.97;8.67;;;;;;;2.96;59.46;94621.88;8255875;28;20615;-80
2020/12/28 08:20:13;;;;;;;9.27;6.93;;;;;;;2.91;59.34;94611.94;8254840;28;20213;-80
2020/12/28 08:24:17;;;;;;;7.93;6.97;;;;;;;3.01;59.67;94600.19;8253691;28;20248;-80
2020/12/28 08:28:19;;;;;;;10.47;8.67;;;;;;;3.15;59.59;94601.78;8256650;28;20226;-80
2020/12/28 08:32:21;;;;;;;8.77;6.60;;;;;;;3.21;58.83;94596.25;8260308;28;20222;-81
2020/12/28 08:36:24;;;;;;;7.90;6.37;;;;;;;3.33;58.63;94608.19;8262402;28;20225;-80
2020/12/28 08:40:28;;;;;;;8.93;6.70;;;;;;;3.35;58.49;94599.59;8258347;28;20229;-81
2020/12/28 08:44:31;;;;;;;8.17;6.63;;;;;;;3.33;58.59;94599.69;8258530;28;20628;-82
2020/12/28 08:48:34;;;;;;;8.80;7.43;;;;;;;3.21;58.71;94601.34;8255391;28;20229;-81
2020/12/28 08:52:47;;;;;;;7.40;6.57;;;;;;;3.19;59.23;94610.06;8258363;28;20222;-81
2020/12/28 08:56:49;;;;;;;7.77;6.93;;;;;;;3.19;58.90;94595.53;8255814;28;20195;-80
2020/12/28 09:00:51;;;;;;;9.83;7.90;;;;;;;3.30;58.88;94599.91;8256100;28;20599;-80
2020/12/28 09:04:53;;;;;;;9.63;8.00;;;;;;;3.37;58.93;94588.34;8256248;28;20639;-80
2020/12/28 09:08:55;;;;;;;9.00;8.10;;;;;;;3.46;58.51;94579.19;8259643;28;20229;-80
2020/12/28 09:12:57;;;;;;;8.70;7.57;;;;;;;3.51;57.76;94587.38;8256373;28;20249;-82
2020/12/28 09:16:59;;;;;;;10.23;7.70;;;;;;;3.70;57.73;94580.03;8257569;28;20287;-82
2020/12/28 09:21:01;;;;;;;9.07;7.63;;;;;;;3.69;58.02;94585.25;8257778;28;20207;-81
2020/12/28 09:25:03;;;;;;;12.23;7.87;;;;;;;3.79;57.68;94581.13;8260107;28;20552;-80
2020/12/28 09:29:05;;;;;;;8.47;6.90;;;;;;;3.79;57.51;94586.25;8260051;28;20231;-79
2020/12/28 09:33:07;;;;;;;9.47;7.60;;;;;;;3.90;57.36;94583.72;8240444;28;20217;-79
2020/12/28 09:37:09;;;;;;;9.17;6.43;;;;;;;4.14;57.49;94592.31;8241491;28;20219;-79
2020/12/28 09:41:11;;;;;;;9.40;7.03;;;;;;;3.94;56.53;94589.44;8238708;28;20203;-79
2020/12/28 09:49:33;;;;;;;9.97;8.03;;;;;;;4.19;56.83;94580.81;8239608;28;20225;-78
2020/12/28 09:53:35;;;;;;;8.07;7.23;;;;;;;4.35;56.42;94579.69;8239421;28;20238;-79
2020/12/28 09:57:37;;;;;;;10.20;7.63;;;;;;;4.03;56.49;94588.75;8240116;28;20218;-78
2020/12/28 10:01:43;;;;;;;10.63;8.23;;;;;;;4.00;57.18;94583.03;8238737;28;20526;-78
2020/12/28 10:05:45;;;;;;;13.87;9.43;;;;;;;4.08;56.99;94576.44;8238437;28;20191;-79
2020/12/28 10:09:46;;;;;;;13.30;9.83;;;;;;;4.07;57.29;94574.84;8239476;28;20277;-79
2020/12/28 10:13:49;;;;;;;10.47;8.80;;;;;;;3.79;58.01;94572.59;8238620;28;20234;-78
2020/12/28 10:18:39;;;;;;;13.37;10.77;;;;;;;3.96;58.73;94563.72;8239776;28;20641;-78
2020/12/28 10:22:41;;;;;;;11.13;9.23;;;;;;;4.00;59.00;94554.88;8143360;29;20238;-78
2020/12/28 10:26:42;;;;;;;10.23;8.07;;;;;;;3.77;59.00;94556.53;8192906;28;20241;-79
2020/12/28 10:30:45;;;;;;;19.27;8.63;;;;;;;6.40;89.48;94544.91;8250493;28;20221;-80
2020/12/28 10:34:46;;;;;;;12.73;9.67;;;;;;;5.53;58.26;94557.06;8265775;28;20646;-80
2020/12/28 10:38:50;;;;;;;13.37;10.13;;;;;;;6.23;59.12;94560.91;8252801;28;20199;-80
2020/12/28 10:42:52;;;;;;;12.73;10.03;;;;;;;6.21;57.02;94560.22;8254722;28;20725;-80
2020/12/28 10:46:55;;;;;;;11.53;10.33;;;;;;;5.26;55.21;94555.72;8244781;28;20227;-79
2020/12/28 10:50:56;;;;;;;14.93;11.00;;;;;;;4.87;56.34;94543.28;8247198;28;20549;-79
2020/12/28 10:54:58;;;;;;;14.00;10.57;;;;;;;5.03;56.49;94529.28;8247946;28;20202;-79
2020/12/28 10:59:00;;;;;;;16.73;12.20;;;;;;;4.77;56.70;94549.22;8244700;28;20226;-79
2020/12/28 11:03:02;;;;;;;16.87;12.17;;;;;;;4.65;56.80;94556.09;8248429;28;20202;-79
2020/12/28 11:07:04;;;;;;;16.90;13.87;;;;;;;4.76;56.66;94556.09;8254301;28;20222;-80
2020/12/28 11:11:06;;;;;;;20.13;14.57;;;;;;;4.45;57.36;94565.25;8276425;28;20209;-80
2020/12/28 11:15:08;;;;;;;13.60;10.87;;;;;;;4.63;57.16;94556.19;8282834;28;20770;-80
2020/12/28 11:19:10;;;;;;;13.77;11.37;;;;;;;4.63;56.89;94547.69;8282026;28;20229;-80
2020/12/28 11:23:12;;;;;;;11.90;9.90;;;;;;;4.04;58.07;94548.63;8283253;28;20654;-80
2020/12/28 11:27:15;;;;;;;10.00;8.40;;;;;;;4.40;57.99;94550.22;8281509;28;20234;-80
2020/12/28 11:31:17;;;;;;;12.83;10.13;;;;;;;4.49;57.62;94535.91;8282782;28;20201;-81
2020/12/28 11:35:21;;;;;;;15.40;12.33;;;;;;;4.62;58.42;94531.47;8285128;28;20252;-81
2020/12/28 11:39:23;;;;;;;18.17;13.93;;;;;;;4.63;57.83;94514.38;8282355;28;20554;-79
2020/12/28 11:43:27;;;;;;;14.30;9.70;;;;;;;4.54;57.96;94512.50;8279402;28;20201;-79
2020/12/28 11:47:29;;;;;;;11.83;9.67;;;;;;;4.52;58.14;94504.94;8279540;28;20229;-79
2020/12/28 11:51:31;;;;;;;1033.00;589.53;;;;;;;5.21;71.76;94497.03;8282180;28;20213;-81
2020/12/28 11:56:01;;;;;;;1211.73;695.40;;;;;;;6.11;79.28;94503.63;8276350;28;20225;-79
2020/12/28 12:00:04;;;;;;;23.60;17.30;;;;;;;5.66;57.46;94483.28;8276364;28;20202;-79
2020/12/28 12:04:06;;;;;;;12.83;10.70;;;;;;;5.46;57.15;94480.56;8282049;28;20201;-81
2020/12/28 12:08:09;;;;;;;10.47;9.23;;;;;;;5.47;56.96;94471.91;8285546;28;20237;-81
2020/12/28 12:12:11;;;;;;;12.40;10.73;;;;;;;5.29;56.49;94468.22;8285747;28;20237;-80
2020/12/28 12:16:12;;;;;;;14.30;10.90;;;;;;;5.35;56.75;94464.34;8285781;28;20256;-79
2020/12/28 12:20:15;;;;;;;14.33;11.00;;;;;;;5.14;56.41;94460.00;8273482;28;20198;-80
2020/12/28 12:24:18;;;;;;;14.30;11.07;;;;;;;5.06;57.29;94449.50;8274936;28;20222;-81
2020/12/28 12:28:19;;;;;;;12.80;10.70;;;;;;;5.20;56.98;94451.81;8251119;28;20229;-79
2020/12/28 12:32:22;;;;;;;10.17;8.97;;;;;;;5.21;57.37;94460.31;8267938;28;20202;-80
2020/12/28 12:36:24;;;;;;;11.57;9.60;;;;;;;5.27;56.93;94470.94;8286297;28;20208;-80
2020/12/28 12:40:27;;;;;;;31.47;21.33;;;;;;;5.22;56.56;94461.97;8288195;28;20303;-81
2020/12/28 12:44:29;;;;;;;19.40;15.57;;;;;;;5.27;56.37;94460.66;8289516;28;20230;-79
2020/12/28 12:48:30;;;;;;;19.03;15.53;;;;;;;5.20;56.25;94453.59;8291053;28;20222;-79
2020/12/28 12:52:32;;;;;;;18.83;14.50;;;;;;;5.24;57.20;94455.78;8282831;28;20205;-79
2020/12/28 12:56:35;;;;;;;14.27;12.03;;;;;;;5.41;56.31;94457.00;8282807;28;20234;-79
2020/12/28 13:00:36;;;;;;;15.53;12.00;;;;;;;5.41;56.86;94451.88;8277424;28;20209;-79
2020/12/28 13:04:38;;;;;;;10.87;9.70;;;;;;;5.42;56.27;94448.34;8247446;28;20214;-79
2020/12/28 13:08:40;;;;;;;15.27;12.30;;;;;;;5.46;56.71;94442.06;8247020;28;20226;-80
2020/12/28 13:12:43;;;;;;;13.93;11.70;;;;;;;5.43;57.46;94439.72;8252137;28;20238;-80
2020/12/28 13:16:47;;;;;;;18.93;15.33;;;;;;;5.49;57.59;94433.28;8253352;28;20207;-79
2020/12/28 13:20:49;;;;;;;18.13;14.30;;;;;;;5.42;57.81;94425.25;8252701;28;20210;-80
2020/12/28 13:24:51;;;;;;;17.67;14.13;;;;;;;5.36;57.54;94427.50;8253877;28;20217;-79
2020/12/28 13:28:56;;;;;;;18.97;15.03;;;;;;;4.92;57.82;94442.09;8250245;28;20234;-79
2020/12/28 13:32:58;;;;;;;24.07;16.37;;;;;;;5.00;57.82;94439.75;8249195;28;20202;-79
2020/12/28 13:37:00;;;;;;;24.67;17.97;;;;;;;4.93;58.48;94438.59;8250867;28;20213;-79
2020/12/28 13:41:02;;;;;;;19.63;15.00;;;;;;;4.58;59.09;94422.44;8255248;28;20210;-79
2020/12/28 13:45:04;;;;;;;18.17;13.87;;;;;;;4.32;59.05;94409.06;8266112;28;20239;-79
2020/12/28 13:49:06;;;;;;;16.40;12.23;;;;;;;4.41;59.67;94395.56;8289251;28;20256;-79
2020/12/28 13:53:07;;;;;;;14.97;11.87;;;;;;;4.29;60.29;94381.94;8283388;28;20204;-80
2020/12/28 13:57:10;;;;;;;14.40;11.07;;;;;;;4.27;59.65;94383.00;8280947;28;20206;-80
2020/12/28 14:01:13;;;;;;;14.23;9.60;;;;;;;4.18;59.23;94376.81;8280072;28;20206;-79
2020/12/28 14:05:14;;;;;;;11.13;8.87;;;;;;;4.24;59.18;94396.84;8284441;28;20202;-79
2020/12/28 14:09:16;;;;;;;12.90;8.00;;;;;;;4.32;59.23;94391.13;8286549;28;20232;-79
2020/12/28 14:13:18;;;;;;;9.70;8.70;;;;;;;4.60;58.54;94415.44;8283143;28;20292;-80
2020/12/28 14:17:21;;;;;;;9.17;8.07;;;;;;;5.17;57.31;94426.41;8279270;28;20430;-79
2020/12/28 14:21:23;;;;;;;11.23;8.60;;;;;;;4.95;56.92;94436.72;8277710;28;20494;-80
2020/12/28 14:25:25;;;;;;;10.73;8.30;;;;;;;5.09;57.27;94444.97;8247899;28;20206;-79
2020/12/28 14:29:27;;;;;;;13.17;10.60;;;;;;;5.15;57.41;94450.56;8251852;28;20245;-79
2020/12/28 14:33:29;;;;;;;20.77;15.53;;;;;;;5.04;58.04;94444.50;8248127;28;20205;-79
2020/12/28 14:37:31;;;;;;;22.47;15.83;;;;;;;5.13;57.98;94444.72;8250047;28;20209;-79
2020/12/28 14:41:33;;;;;;;24.07;19.57;;;;;;;5.12;57.89;94443.91;8247057;28;20206;-80
2020/12/28 14:45:34;;;;;;;15.80;13.40;;;;;;;5.12;57.66;94446.47;8246406;28;20206;-80
2020/12/28 14:49:37;;;;;;;14.90;10.53;;;;;;;5.17;57.54;94440.97;8245890;28;20230;-79
2020/12/28 14:53:43;;;;;;;16.03;12.90;;;;;;;5.20;58.03;94443.31;8246726;28;20202;-80
2020/12/28 14:57:46;;;;;;;18.27;13.63;;;;;;;5.31;57.17;94434.75;8249020;28;20206;-80
2020/12/28 15:01:47;;;;;;;15.93;11.90;;;;;;;5.16;57.63;94436.78;8250714;28;20202;-79
2020/12/28 15:05:50;;;;;;;16.00;12.30;;;;;;;5.19;57.11;94436.53;8281863;28;20198;-79
2020/12/28 15:09:52;;;;;;;21.50;14.63;;;;;;;5.27;57.86;94444.44;8282833;28;20225;-79
2020/12/28 15:13:53;;;;;;;19.37;14.23;;;;;;;5.23;58.13;94450.75;8284920;28;20237;-79
2020/12/28 15:17:55;;;;;;;18.30;13.27;;;;;;;4.99;57.73;94453.50;8283384;28;20662;-79
2020/12/28 15:21:58;;;;;;;15.60;13.23;;;;;;;5.01;57.82;94439.63;8285160;28;20206;-80
2020/12/28 15:26:00;;;;;;;20.10;15.03;;;;;;;4.76;58.58;94440.72;8280973;28;20205;-79
2020/12/28 15:30:03;;;;;;;21.47;16.23;;;;;;;4.75;58.09;94436.53;8279490;28;20229;-79
2020/12/28 15:34:04;;;;;;;20.00;14.33;;;;;;;4.92;58.19;94439.53;8281131;28;20209;-80
2020/12/28 15:38:07;;;;;;;22.43;15.70;;;;;;;4.97;58.14;94443.38;8282962;28;20216;-79
2020/12/28 15:42:09;;;;;;;15.90;13.13;;;;;;;5.11;57.63;94449.16;8283802;28;20202;-79
2020/12/28 15:46:11;;;;;;;22.63;16.80;;;;;;;4.81;58.19;94450.63;8280483;28;20574;-79
2020/12/28 15:50:12;;;;;;;47.77;27.97;;;;;;;5.02;63.09;94456.63;8283627;28;20224;-81
2020/12/28 15:54:15;;;;;;;15.73;12.40;;;;;;;4.83;57.53;94457.25;8287764;28;20212;-79
2020/12/28 15:58:16;;;;;;;15.30;11.93;;;;;;;4.75;58.36;94451.91;8288448;28;20598;-79
2020/12/28 16:02:18;;;;;;;17.20;13.67;;;;;;;4.46;59.39;94457.53;8288858;28;20556;-80
2020/12/28 16:06:20;;;;;;;19.60;13.80;;;;;;;4.56;59.63;94461.94;8287591;28;20265;-80
2020/12/28 16:10:23;;;;;;;16.73;13.87;;;;;;;4.65;58.53;94461.25;8288158;28;20245;-79
2020/12/28 16:14:25;;;;;;;22.10;14.00;;;;;;;4.50;58.88;94466.59;8286088;28;20233;-80
2020/12/28 16:18:27;;;;;;;16.70;13.87;;;;;;;4.57;59.38;94473.81;8286157;28;20209;-80
2020/12/28 16:22:29;;;;;;;20.40;16.23;;;;;;;4.48;59.68;94471.03;8286168;28;20204;-79
2020/12/28 16:26:31;;;;;;;14.60;12.30;;;;;;;4.63;58.96;94481.06;8281476;28;20205;-80
2020/12/28 16:30:33;;;;;;;17.47;11.17;;;;;;;4.76;58.61;94479.19;8286722;28;20234;-80
2020/12/28 16:34:35;;;;;;;14.87;12.43;;;;;;;4.86;58.80;94485.22;8282876;28;20205;-80
2020/12/28 16:38:37;;;;;;;19.53;14.73;;;;;;;4.88;58.75;94491.03;8283476;28;20201;-80
2020/12/28 16:42:39;;;;;;;16.47;13.50;;;;;;;4.96;58.58;94498.16;8285333;28;20206;-80
2020/12/28 16:46:41;;;;;;;17.87;12.67;;;;;;;4.65;59.19;94495.38;8288082;28;20213;-79
2020/12/28 16:50:43;;;;;;;14.33;11.87;;;;;;;4.66;59.38;94503.88;8287142;28;20202;-79
2020/12/28 16:54:44;;;;;;;14.80;12.10;;;;;;;4.65;59.46;94513.31;8289805;28;20202;-81
2020/12/28 16:58:47;;;;;;;14.10;11.43;;;;;;;4.67;59.63;94514.00;8290256;28;20210;-79
2020/12/28 17:02:49;;;;;;;12.97;11.57;;;;;;;4.64;59.55;94521.91;8286936;28;20194;-80
2020/12/28 17:06:55;;;;;;;15.37;12.17;;;;;;;4.65;59.63;94522.75;8256969;28;20203;-80
2020/12/28 17:10:57;;;;;;;17.47;12.50;;;;;;;4.69;59.41;94527.53;8257404;28;20210;-80
2020/12/28 17:15:00;;;;;;;15.80;12.70;;;;;;;4.83;59.46;94541.03;8257512;28;20226;-80
2020/12/28 17:19:02;;;;;;;15.13;11.77;;;;;;;4.90;59.47;94537.91;8258196;28;20273;-80
2020/12/28 17:23:04;;;;;;;13.73;11.60;;;;;;;4.93;59.61;94529.16;8258876;28;20206;-80
2020/12/28 17:27:07;;;;;;;14.00;11.30;;;;;;;4.85;60.49;94545.13;8257056;28;20227;-80
2020/12/28 17:31:11;;;;;;;13.50;11.73;;;;;;;4.58;61.73;94553.16;8254783;28;20198;-79
2020/12/28 17:35:18;;;;;;;12.30;10.73;;;;;;;4.37;63.47;94549.63;8259406;28;20218;-80
2020/12/28 17:39:19;;;;;;;14.47;11.70;;;;;;;4.54;63.48;94551.75;8259412;28;20236;-81
2020/12/28 17:43:21;;;;;;;16.33;13.37;;;;;;;4.68;62.95;94555.84;8259027;28;20291;-80
2020/12/28 17:47:24;;;;;;;16.90;11.90;;;;;;;4.39;63.97;94563.94;8259051;28;20230;-80
2020/12/28 17:51:25;;;;;;;16.40;12.63;;;;;;;4.40;64.11;94562.19;8258720;28;20259;-80
2020/12/28 17:55:27;;;;;;;14.67;12.10;;;;;;;4.37;63.88;94560.69;8259650;28;20226;-80
2020/12/28 17:59:29;;;;;;;15.20;11.77;;;;;;;4.49;63.73;94569.22;8256362;28;20206;-80
2020/12/28 18:03:31;;;;;;;18.83;13.63;;;;;;;4.72;63.42;94564.09;8257617;28;20217;-80
2020/12/28 18:07:33;;;;;;;16.77;11.83;;;;;;;4.67;63.32;94560.16;8250726;28;20276;-79
2020/12/28 18:11:35;;;;;;;16.60;12.33;;;;;;;4.56;63.44;94556.75;8252169;28;20293;-79
2020/12/28 18:15:37;;;;;;;18.93;14.67;;;;;;;4.38;64.30;94552.09;8254004;28;20230;-78
2020/12/28 18:19:39;;;;;;;15.87;13.93;;;;;;;4.29;64.54;94553.56;8251591;28;20217;-81
2020/12/28 18:23:41;;;;;;;15.90;13.10;;;;;;;4.35;64.39;94554.88;8252837;28;20202;-80
2020/12/28 18:27:44;;;;;;;14.63;12.13;;;;;;;4.67;63.52;94554.22;8253115;28;20233;-80
2020/12/28 18:31:56;;;;;;;15.23;11.83;;;;;;;4.68;63.36;94558.41;8253534;28;20206;-79
2020/12/28 18:35:59;;;;;;;16.10;12.03;;;;;;;4.57;63.60;94568.63;8252833;28;20678;-80
2020/12/28 18:40:01;;;;;;;15.43;12.90;;;;;;;4.56;63.50;94562.69;8254634;28;20681;-79
2020/12/28 18:44:03;;;;;;;19.67;15.53;;;;;;;4.65;63.61;94562.00;8256653;28;20659;-80
2020/12/28 18:48:05;;;;;;;18.33;16.13;;;;;;;4.63;63.61;94568.19;8257409;28;20226;-80
2020/12/28 18:52:09;;;;;;;17.40;15.60;;;;;;;4.52;64.14;94566.44;8259341;28;20210;-79
2020/12/28 18:56:14;;;;;;;19.03;16.60;;;;;;;4.63;63.70;94561.31;8256258;28;20639;-80
2020/12/28 19:00:16;;;;;;;19.30;16.43;;;;;;;4.69;63.59;94560.03;8254111;28;20353;-80
2020/12/28 19:04:18;;;;;;;46.73;31.57;;;;;;;4.59;63.81;94564.22;8285074;28;20597;-80
2020/12/28 19:08:21;;;;;;;60.77;38.00;;;;;;;4.67;63.31;94559.34;8283454;28;20236;-80